Time;durP1;ratioP1;P1;durP2;ratioP2;P2;SDS_P1;SDS_P2;PMS_P1;PMS_P2;Temp;Humidity;BMP_temperature;BMP_pressure;BME280_temperature;BME280_humidity;BME280_pressure;Samples;Min_cycle;Max_cycle;Signal;HPM_P1;HPM_P2
2021/03/07 00:01:48;;;;;;;0.10;0.10;;;;;;;-4.45;84.24;101636.00;1781308;80;21550;-45
2021/03/07 00:04:49;;;;;;;0.93;0.93;;;;;;;-4.47;84.29;101634.84;1781008;80;21154;-45
2021/03/07 00:07:52;;;;;;;0.10;0.10;;;;;;;-4.47;84.29;101634.84;1781411;80;21158;-46
2021/03/07 00:10:54;;;;;;;0.10;0.10;;;;;;;-4.47;84.24;101636.67;1778784;80;21594;-45
2021/03/07 00:13:55;;;;;;;0.10;0.10;;;;;;;-4.48;84.20;101635.81;1778739;80;21135;-45
2021/03/07 00:16:55;;;;;;;0.10;0.10;;;;;;;-4.48;84.13;101633.14;1755331;80;21127;-46
2021/03/07 00:19:57;;;;;;;0.10;0.10;;;;;;;-4.51;84.09;101626.78;1778839;80;21506;-45
2021/03/07 00:22:57;;;;;;;0.25;0.25;;;;;;;-4.53;84.07;101627.42;1778717;80;21190;-45
2021/03/07 00:25:58;;;;;;;0.10;0.10;;;;;;;-4.53;84.04;101618.09;1778736;80;21182;-45
2021/03/07 00:28:58;;;;;;;0.15;0.15;;;;;;;-4.55;84.01;101610.25;1778517;80;21162;-46
2021/03/07 00:32:00;;;;;;;0.08;0.08;;;;;;;-4.56;83.96;101607.72;1778682;80;21134;-45
2021/03/07 00:35:02;;;;;;;0.00;0.00;;;;;;;-4.57;83.94;101604.72;1778764;80;21083;-45
2021/03/07 00:38:02;;;;;;;0.10;0.10;;;;;;;-4.61;83.96;101602.01;1778781;80;21119;-45
2021/03/07 00:41:03;;;;;;;0.30;0.30;;;;;;;-4.63;83.98;101593.31;1778749;80;21198;-46
2021/03/07 00:44:04;;;;;;;1.05;0.95;;;;;;;-4.63;84.01;101586.64;1778708;80;21175;-45
2021/03/07 00:47:05;;;;;;;0.10;0.10;;;;;;;-4.63;84.01;101585.31;1778781;80;21104;-46
2021/03/07 00:50:05;;;;;;;0.10;0.10;;;;;;;-4.63;84.01;101578.64;1778766;80;21114;-44
2021/03/07 00:53:06;;;;;;;0.10;0.10;;;;;;;-4.64;84.03;101579.64;1778829;80;21171;-45
2021/03/07 00:56:07;;;;;;;0.25;0.25;;;;;;;-4.65;84.04;101574.81;1778629;80;21175;-45
2021/03/07 00:59:07;;;;;;;0.10;0.10;;;;;;;-4.67;84.00;101564.78;1778634;80;21119;-45
2021/03/07 01:02:08;;;;;;;3.33;1.45;;;;;;;-4.68;84.02;101571.59;1778704;80;21561;-45
2021/03/07 01:05:09;;;;;;;0.10;0.10;;;;;;;-4.71;84.01;101557.23;1778780;80;21205;-46
2021/03/07 01:08:10;;;;;;;0.10;0.10;;;;;;;-4.74;84.08;101549.05;1777580;80;21174;-45
2021/03/07 01:11:11;;;;;;;0.10;0.10;;;;;;;-4.78;84.07;101543.16;1778810;80;21435;-45
2021/03/07 01:14:14;;;;;;;0.10;0.10;;;;;;;-4.81;84.10;101539.97;1778489;80;21139;-46
2021/03/07 01:17:15;;;;;;;0.20;0.20;;;;;;;-4.84;84.23;101540.28;1778709;80;21119;-45
2021/03/07 01:20:19;;;;;;;0.20;0.20;;;;;;;-4.88;84.25;101531.73;1778741;80;21119;-45
2021/03/07 01:23:21;;;;;;;0.10;0.10;;;;;;;-4.92;84.33;101530.38;1778703;80;21131;-46
2021/03/07 01:26:22;;;;;;;1.87;0.55;;;;;;;-4.95;84.41;101525.83;1778789;80;21124;-45
2021/03/07 01:29:22;;;;;;;0.10;0.10;;;;;;;-4.98;84.52;101528.30;1778762;80;21197;-45
2021/03/07 01:32:23;;;;;;;0.10;0.10;;;;;;;-5.02;84.56;101528.25;1778794;80;21434;-46
2021/03/07 01:35:24;;;;;;;0.10;0.10;;;;;;;-5.06;84.63;101526.39;1778498;80;21162;-44
2021/03/07 01:38:25;;;;;;;0.20;0.20;;;;;;;-5.08;84.71;101529.70;1778848;80;21171;-45
2021/03/07 01:41:25;;;;;;;0.10;0.10;;;;;;;-5.11;84.79;101521.19;1778714;80;21150;-45
2021/03/07 01:44:26;;;;;;;0.10;0.10;;;;;;;-5.14;84.87;101510.80;1778568;80;21231;-45
2021/03/07 01:47:34;;;;;;;0.10;0.10;;;;;;;-5.16;84.94;101511.47;1778747;80;21150;-45
2021/03/07 01:50:37;;;;;;;0.10;0.10;;;;;;;-5.16;84.96;101516.80;1778711;80;21111;-44
2021/03/07 01:53:37;;;;;;;0.10;0.10;;;;;;;-5.20;84.93;101509.08;1778790;80;21495;-45
2021/03/07 01:56:37;;;;;;;0.10;0.10;;;;;;;-5.26;84.91;101501.70;1779173;80;21161;-45
2021/03/07 01:59:38;;;;;;;0.05;0.05;;;;;;;-5.26;84.91;101501.70;1781202;80;21170;-45
2021/03/07 02:02:38;;;;;;;0.10;0.10;;;;;;;-5.27;85.02;101501.84;1781152;80;21147;-45
2021/03/07 02:05:39;;;;;;;0.20;0.20;;;;;;;-5.30;85.06;101492.32;1781150;80;21158;-47
2021/03/07 02:08:39;;;;;;;0.10;0.10;;;;;;;-5.31;85.03;101491.99;1782726;80;21490;-44
2021/03/07 02:11:41;;;;;;;0.10;0.10;;;;;;;-5.32;85.03;101492.96;1784195;80;21151;-45
2021/03/07 02:14:41;;;;;;;0.10;0.10;;;;;;;-5.30;84.77;101494.98;1784147;80;21462;-45
2021/03/07 02:17:43;;;;;;;0.10;0.10;;;;;;;-5.30;84.77;101494.98;1783833;80;21178;-46
2021/03/07 02:20:47;;;;;;;0.10;0.10;;;;;;;-5.30;84.89;101492.32;1783968;80;21130;-45
2021/03/07 02:24:11;;;;;;;0.15;0.15;;;;;;;-5.29;84.86;101486.49;1784045;80;21120;-44
2021/03/07 02:27:12;;;;;;;;;;;;;;;-5.31;84.78;101487.99;1787006;80;22132;-45
2021/03/07 02:30:14;;;;;;;0.10;0.10;;;;;;;-5.32;84.75;101499.62;1762961;80;20247;-45
2021/03/07 02:33:38;;;;;;;0.10;0.10;;;;;;;-5.35;84.69;101494.60;1784344;80;21454;-45
2021/03/07 02:36:42;;;;;;;0.10;0.10;;;;;;;-5.34;84.71;101492.30;1784192;80;21132;-45
2021/03/07 02:39:45;;;;;;;0.00;0.00;;;;;;;-5.35;84.66;101495.93;1784326;80;21158;-44
2021/03/07 02:42:45;;;;;;;0.20;0.20;;;;;;;-5.35;84.58;101487.94;1784325;80;21617;-45
2021/03/07 02:45:46;;;;;;;0.10;0.10;;;;;;;-5.37;84.54;101487.75;1764032;80;21171;-45
2021/03/07 02:48:53;;;;;;;0.10;0.10;;;;;;;-5.40;84.59;101487.55;1784315;80;21163;-45
2021/03/07 02:51:55;;;;;;;0.10;0.10;;;;;;;-5.46;84.53;101477.52;1784002;80;21163;-45
2021/03/07 02:54:57;;;;;;;0.00;0.00;;;;;;;-5.54;84.52;101469.41;1783935;80;21461;-45
2021/03/07 02:57:58;;;;;;;0.10;0.10;;;;;;;-5.70;84.62;101477.55;1744680;80;21154;-46
2021/03/07 03:01:02;;;;;;;0.10;0.10;;;;;;;-5.70;84.62;101477.55;1783727;80;21178;-47
2021/03/07 03:04:03;;;;;;;3.30;0.80;;;;;;;-5.75;84.67;101475.83;1783969;80;21428;-45
2021/03/07 03:07:04;;;;;;;0.10;0.10;;;;;;;-5.82;84.82;101473.41;1782430;80;20984;-44
2021/03/07 03:10:05;;;;;;;0.20;0.20;;;;;;;-5.91;85.04;101464.96;1761983;80;21142;-44
2021/03/07 03:13:06;;;;;;;0.13;0.13;;;;;;;-5.91;85.04;101464.96;1782211;80;21190;-45
2021/03/07 03:16:08;;;;;;;0.10;0.10;;;;;;;-5.94;85.16;101466.63;1782314;80;21538;-45
2021/03/07 03:19:13;;;;;;;0.10;0.10;;;;;;;-5.97;85.27;101462.94;1782145;80;21135;-46
2021/03/07 03:22:13;;;;;;;0.10;0.10;;;;;;;-6.00;85.48;101461.41;1781769;80;21115;-45
2021/03/07 03:25:15;;;;;;;0.10;0.10;;;;;;;-6.00;85.53;101453.92;1781661;80;21119;-45
2021/03/07 03:28:15;;;;;;;0.00;0.00;;;;;;;-6.00;85.67;101446.77;1782127;80;21189;-45
2021/03/07 03:31:16;;;;;;;0.10;0.10;;;;;;;-5.98;85.73;101444.80;1782086;80;21168;-46
2021/03/07 03:34:16;;;;;;;0.03;0.03;;;;;;;-5.97;85.75;101433.66;1782195;80;21122;-44
2021/03/07 03:37:17;;;;;;;0.10;0.10;;;;;;;-5.99;85.72;101424.48;1782240;80;21139;-44
2021/03/07 03:40:24;;;;;;;0.15;0.15;;;;;;;-6.05;85.82;101423.75;1782304;80;21151;-44
2021/03/07 03:43:24;;;;;;;0.10;0.10;;;;;;;-6.05;85.82;101423.75;1781592;80;21154;-45
2021/03/07 03:46:27;;;;;;;0.10;0.10;;;;;;;-6.10;85.93;101424.19;1781910;80;21466;-44
2021/03/07 03:49:37;;;;;;;2.05;0.62;;;;;;;-6.13;85.91;101421.83;1782272;80;21653;-45
2021/03/07 03:52:40;;;;;;;0.40;0.40;;;;;;;-6.16;86.00;101406.13;1782269;80;21537;-45
2021/03/07 03:55:40;;;;;;;0.10;0.10;;;;;;;-6.20;86.10;101400.78;1782430;80;21420;-45
2021/03/07 03:58:48;;;;;;;0.10;0.10;;;;;;;-6.21;86.18;101396.42;1782237;80;21158;-45
2021/03/07 04:01:48;;;;;;;0.10;0.10;;;;;;;-6.24;86.22;101397.22;1782173;80;21155;-45
2021/03/07 04:04:49;;;;;;;0.03;0.03;;;;;;;-6.25;86.30;101407.03;1781989;80;21142;-44
2021/03/07 04:07:50;;;;;;;0.10;0.10;;;;;;;-6.24;86.31;101403.88;1780079;80;21214;-46
2021/03/07 04:10:52;;;;;;;0.10;0.10;;;;;;;-6.25;86.53;101377.77;1782272;80;21408;-46
2021/03/07 04:13:52;;;;;;;0.10;0.10;;;;;;;-6.25;86.53;101377.77;1782599;80;21139;-45
2021/03/07 04:16:55;;;;;;;0.30;0.30;;;;;;;-6.27;86.51;101361.94;1782205;80;21147;-45
2021/03/07 04:19:58;;;;;;;0.10;0.10;;;;;;;-6.27;86.51;101361.94;1781493;80;21165;-45
2021/03/07 04:22:58;;;;;;;0.10;0.10;;;;;;;-6.23;86.35;101365.16;1782407;80;21186;-45
2021/03/07 04:25:59;;;;;;;0.10;0.10;;;;;;;-6.21;86.11;101355.19;1782389;80;21174;-44
2021/03/07 04:28:59;;;;;;;0.10;0.10;;;;;;;-6.21;86.11;101355.19;1781819;80;21620;-45
2021/03/07 04:32:00;;;;;;;0.20;0.20;;;;;;;-6.18;86.18;101352.72;1761996;80;21162;-45
2021/03/07 04:35:00;;;;;;;0.10;0.10;;;;;;;-6.18;86.18;101352.72;1782276;80;21155;-45
2021/03/07 04:38:09;;;;;;;0.13;0.13;;;;;;;-6.11;86.28;101354.67;1782404;80;21138;-45
2021/03/07 04:41:09;;;;;;;0.10;0.10;;;;;;;-6.11;86.28;101354.67;1782418;80;21588;-45
2021/03/07 04:44:11;;;;;;;0.10;0.10;;;;;;;-6.07;86.02;101345.38;1782349;80;21143;-45
2021/03/07 04:47:11;;;;;;;0.25;0.25;;;;;;;-6.00;85.96;101340.81;1782259;80;21202;-45
2021/03/07 04:50:18;;;;;;;0.10;0.10;;;;;;;-5.97;85.80;101337.34;1782292;80;21123;-46
2021/03/07 04:53:18;;;;;;;0.17;0.17;;;;;;;-5.92;85.63;101327.05;1782296;80;21138;-46
2021/03/07 04:56:18;;;;;;;0.10;0.10;;;;;;;-5.86;85.50;101329.59;1782303;80;21175;-45
2021/03/07 04:59:19;;;;;;;0.10;0.10;;;;;;;-5.80;85.36;101322.86;1782258;80;21182;-45
2021/03/07 05:02:19;;;;;;;0.10;0.10;;;;;;;-5.73;85.22;101308.78;1782309;80;21448;-47
2021/03/07 05:05:22;;;;;;;0.10;0.10;;;;;;;-5.64;85.14;101299.03;1782297;80;21167;-46
2021/03/07 05:08:22;;;;;;;0.00;0.00;;;;;;;-5.55;84.92;101295.96;1780901;80;21166;-45
2021/03/07 05:11:22;;;;;;;0.85;0.35;;;;;;;-5.45;84.67;101296.20;1782432;80;21139;-45
2021/03/07 05:14:23;;;;;;;0.08;0.08;;;;;;;-5.25;84.00;101282.70;1782506;80;21174;-47
2021/03/07 05:17:24;;;;;;;0.10;0.10;;;;;;;-5.25;84.00;101282.70;1782241;80;21591;-45
2021/03/07 05:20:25;;;;;;;0.28;0.28;;;;;;;-5.11;83.70;101283.47;1782215;80;21210;-46
2021/03/07 05:23:25;;;;;;;0.00;0.00;;;;;;;-5.01;83.30;101276.70;1782272;80;21115;-45
2021/03/07 05:26:27;;;;;;;0.03;0.03;;;;;;;-4.91;82.79;101277.44;1782268;80;21600;-44
2021/03/07 05:29:27;;;;;;;0.10;0.10;;;;;;;-4.81;82.29;101283.48;1782236;80;21616;-45
2021/03/07 05:32:27;;;;;;;1.75;1.10;;;;;;;-4.71;81.71;101271.88;1782178;80;21146;-45
2021/03/07 05:35:28;;;;;;;0.37;0.37;;;;;;;-4.62;81.29;101265.59;1782176;80;21143;-45
2021/03/07 05:38:28;;;;;;;0.10;0.10;;;;;;;-4.51;80.97;101265.29;1782164;80;21115;-45
2021/03/07 05:41:29;;;;;;;0.25;0.25;;;;;;;-4.39;80.38;101262.67;1782296;80;21179;-45
2021/03/07 05:44:29;;;;;;;0.10;0.10;;;;;;;-4.26;80.04;101252.03;1782259;80;21455;-46
2021/03/07 05:47:30;;;;;;;0.10;0.10;;;;;;;-4.13;79.47;101244.38;1782280;80;21653;-45
2021/03/07 05:50:30;;;;;;;0.10;0.10;;;;;;;-3.98;78.89;101241.42;1782388;80;21146;-45
2021/03/07 05:53:31;;;;;;;0.10;0.10;;;;;;;-3.80;78.49;101245.78;1782234;80;21134;-45
2021/03/07 05:56:31;;;;;;;0.10;0.10;;;;;;;-3.64;77.77;101251.12;1782219;80;21158;-45
2021/03/07 05:59:32;;;;;;;0.10;0.10;;;;;;;-3.46;77.15;101248.30;1782149;80;21206;-48
2021/03/07 06:02:32;;;;;;;0.10;0.10;;;;;;;-3.28;76.58;101245.44;1782345;80;21138;-46
2021/03/07 06:05:32;;;;;;;0.33;0.33;;;;;;;-3.10;75.58;101247.39;1761804;80;21135;-45
2021/03/07 06:08:33;;;;;;;0.10;0.10;;;;;;;-2.91;75.34;101235.50;1782125;80;21245;-45
2021/03/07 06:11:38;;;;;;;0.13;0.13;;;;;;;-2.75;74.26;101229.75;1779261;80;21159;-45
2021/03/07 06:14:40;;;;;;;0.10;0.10;;;;;;;-2.61;73.48;101217.82;1779105;80;21174;-45
2021/03/07 06:17:49;;;;;;;0.10;0.10;;;;;;;-2.45;72.90;101221.42;1779201;80;21182;-45
2021/03/07 06:20:51;;;;;;;0.10;0.10;;;;;;;-2.32;71.98;101204.30;1779093;80;21139;-46
2021/03/07 06:23:51;;;;;;;0.20;0.20;;;;;;;-2.18;71.16;101203.55;1779196;80;21541;-45
2021/03/07 06:27:09;;;;;;;0.57;0.57;;;;;;;-2.03;70.67;101204.96;1776981;80;21127;-45
2021/03/07 06:30:24;;;;;;;0.10;0.10;;;;;;;-1.86;69.48;101189.58;1760628;80;21182;-46
2021/03/07 06:33:41;;;;;;;0.00;0.00;;;;;;;-1.71;68.80;101183.44;1779176;80;21140;-45
2021/03/07 06:36:42;;;;;;;0.00;0.00;;;;;;;-1.55;68.28;101185.98;1779313;80;21122;-45
2021/03/07 06:39:43;;;;;;;0.10;0.10;;;;;;;-1.43;66.80;101186.37;1779147;80;21135;-45
2021/03/07 06:42:50;;;;;;;0.28;0.28;;;;;;;-1.36;66.33;101182.78;1779323;80;21116;-45
2021/03/07 06:45:45;;;;;;;0.10;0.10;;;;;;;-1.25;66.24;101182.00;1779231;80;21178;-45
2021/03/07 06:48:41;;;;;;;0.30;0.30;;;;;;;-1.18;65.94;101171.69;1779161;80;21008;-45
2021/03/07 06:51:41;;;;;;;0.10;0.10;;;;;;;-1.12;65.63;101168.77;1779203;80;21119;-45
2021/03/07 06:55:14;;;;;;;0.45;0.45;;;;;;;-1.07;65.23;101156.98;1778813;80;48501;-46
2021/03/07 06:58:24;;;;;;;1.10;0.40;;;;;;;-1.00;65.33;101159.24;1779055;80;21146;-45
2021/03/07 07:01:24;;;;;;;0.10;0.10;;;;;;;-0.90;65.35;101147.71;1779024;80;21435;-45
2021/03/07 07:04:26;;;;;;;12.70;1.10;;;;;;;-0.78;65.10;101148.59;1778953;80;21319;-45
2021/03/07 07:07:28;;;;;;;0.10;0.10;;;;;;;-0.66;65.26;101137.70;1779219;80;21147;-45
2021/03/07 07:10:30;;;;;;;0.35;0.35;;;;;;;-0.53;65.15;101127.09;1777782;80;21566;-45
2021/03/07 07:13:32;;;;;;;0.08;0.08;;;;;;;-0.35;64.98;101133.37;1779190;80;21142;-46
2021/03/07 07:16:32;;;;;;;0.45;0.45;;;;;;;-0.18;64.61;101124.55;1779385;80;21159;-45
2021/03/07 07:19:34;;;;;;;0.10;0.10;;;;;;;-0.04;64.17;101119.63;1779122;80;21111;-44
2021/03/07 07:22:34;;;;;;;0.72;0.72;;;;;;;0.10;64.04;101108.50;1779240;80;21167;-44
2021/03/07 07:25:34;;;;;;;0.65;0.65;;;;;;;0.21;63.60;101107.13;1779025;80;21712;-45
2021/03/07 07:28:35;;;;;;;0.42;0.42;;;;;;;0.28;63.55;101099.12;1757017;80;21585;-45
2021/03/07 07:32:00;;;;;;;0.95;0.95;;;;;;;0.34;63.08;101094.28;1779240;80;21174;-46
2021/03/07 07:35:13;;;;;;;0.47;0.47;;;;;;;0.39;62.61;101102.07;1778936;80;21486;-46
2021/03/07 07:38:15;;;;;;;0.23;0.23;;;;;;;0.42;62.38;101087.41;1779135;80;21127;-45
2021/03/07 07:41:39;;;;;;;0.20;0.20;;;;;;;0.45;62.33;101083.00;1738209;80;21115;-45
2021/03/07 07:44:40;;;;;;;0.65;0.65;;;;;;;0.51;62.36;101071.96;1779349;80;21198;-45
2021/03/07 07:47:58;;;;;;;0.25;0.25;;;;;;;0.61;61.91;101067.05;1779375;80;21170;-45
2021/03/07 07:50:59;;;;;;;0.37;0.37;;;;;;;0.73;61.50;101065.45;1779290;80;21186;-45
2021/03/07 07:53:59;;;;;;;0.95;0.95;;;;;;;0.83;61.02;101059.19;1779341;80;21123;-45
2021/03/07 07:57:00;;;;;;;0.23;0.23;;;;;;;0.92;60.97;101051.79;1777016;80;21123;-46
2021/03/07 08:00:02;;;;;;;0.13;0.13;;;;;;;1.02;60.58;101047.37;1779475;80;21112;-45
2021/03/07 08:03:03;;;;;;;0.10;0.10;;;;;;;1.07;59.89;101048.42;1779373;80;21175;-45
2021/03/07 08:06:07;;;;;;;0.25;0.25;;;;;;;1.11;59.58;101043.45;1779326;80;21613;-45
2021/03/07 08:09:48;;;;;;;0.42;0.37;;;;;;;1.15;59.77;101039.33;1778712;80;21159;-45
2021/03/07 08:12:55;;;;;;;0.08;0.08;;;;;;;1.22;59.05;101021.34;1782308;80;21569;-46
2021/03/07 08:15:58;;;;;;;0.40;0.40;;;;;;;1.29;58.93;101022.19;1782416;80;21143;-45
2021/03/07 08:19:01;;;;;;;0.00;0.00;;;;;;;1.39;58.79;101020.97;1782292;80;21171;-45
2021/03/07 08:22:04;;;;;;;1.25;0.57;;;;;;;1.52;58.61;101010.72;1782364;80;21599;-46
2021/03/07 08:25:04;;;;;;;0.40;0.40;;;;;;;1.66;57.79;101006.48;1782299;80;21144;-46
2021/03/07 08:28:05;;;;;;;0.10;0.10;;;;;;;1.81;58.16;101008.14;1782309;80;21151;-45
2021/03/07 08:31:09;;;;;;;0.20;0.20;;;;;;;1.99;57.06;100995.38;1782498;80;21533;-44
2021/03/07 08:34:27;;;;;;;1.35;0.50;;;;;;;2.13;56.21;100991.10;1782443;80;21138;-46
2021/03/07 08:37:27;;;;;;;0.30;0.30;;;;;;;2.19;55.98;100978.63;1782372;80;21158;-45
2021/03/07 08:40:40;;;;;;;0.50;0.50;;;;;;;2.26;55.71;100967.84;1782290;80;22244;-45
2021/03/07 08:43:48;;;;;;;0.28;0.28;;;;;;;2.30;55.72;100947.48;1782518;80;21688;-44
2021/03/07 08:46:53;;;;;;;0.10;0.10;;;;;;;2.37;55.25;100948.29;1782436;80;21159;-44
2021/03/07 08:49:53;;;;;;;0.30;0.30;;;;;;;2.42;55.27;100939.56;1782337;80;21430;-45
2021/03/07 08:52:55;;;;;;;0.47;0.47;;;;;;;2.47;55.73;100945.97;1782456;80;21023;-45
2021/03/07 08:55:56;;;;;;;0.10;0.10;;;;;;;2.53;55.00;100942.42;1782432;80;21573;-45
2021/03/07 08:58:57;;;;;;;0.30;0.30;;;;;;;2.62;55.01;100924.14;1782411;80;21399;-45
2021/03/07 09:01:58;;;;;;;0.85;0.85;;;;;;;2.70;54.38;100925.76;1781789;80;21154;-45
2021/03/07 09:04:59;;;;;;;0.13;0.13;;;;;;;2.71;54.86;100924.70;1782219;80;21119;-45
2021/03/07 09:08:06;;;;;;;0.10;0.10;;;;;;;2.79;54.55;100923.94;1782236;80;21151;-45
2021/03/07 09:11:06;;;;;;;0.70;0.40;;;;;;;2.91;54.66;100927.28;1780748;80;21126;-45
2021/03/07 09:14:07;;;;;;;0.10;0.10;;;;;;;3.04;54.18;100914.22;1779270;80;21569;-46
2021/03/07 09:17:11;;;;;;;0.55;0.55;;;;;;;3.09;54.32;100908.48;1779239;80;21132;-45
2021/03/07 09:20:14;;;;;;;0.35;0.35;;;;;;;3.16;54.42;100905.19;1779327;80;21589;-45
2021/03/07 09:23:35;;;;;;;0.10;0.10;;;;;;;3.18;53.71;100899.58;1779229;80;21190;-46
2021/03/07 09:26:36;;;;;;;0.37;0.37;;;;;;;3.15;54.39;100902.73;1779244;80;21489;-46
2021/03/07 09:29:37;;;;;;;0.88;0.88;;;;;;;3.23;54.40;100901.09;1779229;80;21135;-45
2021/03/07 09:32:55;;;;;;;0.47;0.47;;;;;;;3.23;53.97;100895.16;1779291;80;21162;-46
2021/03/07 09:36:09;;;;;;;0.80;0.80;;;;;;;3.28;54.30;100889.64;1779128;80;21139;-45
2021/03/07 09:39:15;;;;;;;0.37;0.37;;;;;;;3.36;54.31;100883.45;1779101;80;21494;-46
2021/03/07 09:42:15;;;;;;;0.57;0.57;;;;;;;3.46;54.14;100897.78;1779425;80;21115;-45
2021/03/07 09:45:16;;;;;;;2.42;0.53;;;;;;;3.55;53.57;100880.25;1779376;80;21159;-45
2021/03/07 09:48:17;;;;;;;0.95;0.95;;;;;;;3.58;53.61;100883.84;1738183;80;21146;-45
2021/03/07 09:51:20;;;;;;;1.12;0.57;;;;;;;3.66;53.49;100886.81;1779105;80;21162;-46
2021/03/07 09:54:22;;;;;;;1.85;1.07;;;;;;;3.68;53.35;100883.88;1779245;80;21146;-46
2021/03/07 09:57:26;;;;;;;0.78;0.78;;;;;;;3.68;53.42;100883.34;1779311;80;21474;-46
2021/03/07 10:00:32;;;;;;;0.65;0.65;;;;;;;3.72;52.89;100881.86;1779128;80;21151;-44
2021/03/07 10:03:34;;;;;;;1.30;0.93;;;;;;;3.75;52.54;100875.99;1779286;80;21127;-44
2021/03/07 10:06:36;;;;;;;2.65;0.53;;;;;;;3.71;52.38;100877.52;1779325;80;21166;-44
2021/03/07 10:09:36;;;;;;;1.45;0.90;;;;;;;3.74;53.17;100870.30;1779285;80;21168;-44
2021/03/07 10:13:03;;;;;;;0.65;0.62;;;;;;;3.79;53.13;100863.69;1779295;80;21529;-44
2021/03/07 10:16:05;;;;;;;2.90;1.92;;;;;;;3.93;52.79;100866.23;1778938;80;21139;-45
2021/03/07 10:19:17;;;;;;;0.10;0.10;;;;;;;4.05;52.25;100869.31;1779444;80;21127;-45
2021/03/07 10:22:19;;;;;;;0.53;0.53;;;;;;;4.13;52.29;100856.04;1779463;80;21905;-44
2021/03/07 10:25:36;;;;;;;0.60;0.60;;;;;;;4.16;51.72;100862.88;1779283;80;21214;-48
2021/03/07 10:28:43;;;;;;;0.75;0.70;;;;;;;4.09;51.37;100834.55;1778274;80;21127;-47
2021/03/07 10:31:44;;;;;;;0.33;0.20;;;;;;;4.00;51.67;100835.36;1779240;80;21502;-47
2021/03/07 10:34:53;;;;;;;0.20;0.20;;;;;;;3.98;51.71;100847.45;1779074;80;21162;-48
2021/03/07 10:37:54;;;;;;;0.78;0.75;;;;;;;3.84;51.65;100820.59;1779307;80;21163;-47
2021/03/07 10:40:54;;;;;;;0.10;0.10;;;;;;;3.69;52.31;100821.49;1779050;80;21150;-47
2021/03/07 10:44:02;;;;;;;1.00;0.57;;;;;;;3.51;52.35;100820.96;1779188;80;21170;-47
2021/03/07 10:47:02;;;;;;;1.20;0.78;;;;;;;3.37;52.78;100827.01;1779262;80;21616;-47
2021/03/07 10:50:03;;;;;;;0.20;0.20;;;;;;;3.30;53.24;100824.07;1779196;80;21115;-48
2021/03/07 10:53:06;;;;;;;0.20;0.20;;;;;;;3.37;53.68;100817.55;1779515;80;21147;-48
2021/03/07 10:56:06;;;;;;;0.20;0.20;;;;;;;3.55;53.30;100805.11;1779134;80;21138;-49
2021/03/07 10:59:06;;;;;;;0.33;0.33;;;;;;;3.69;52.97;100804.45;1779217;80;21163;-49
2021/03/07 11:02:07;;;;;;;1.02;0.25;;;;;;;3.87;52.84;100805.26;1779154;80;21154;-49
2021/03/07 11:05:07;;;;;;;1.10;0.90;;;;;;;4.01;52.46;100792.41;1779214;80;21099;-48
2021/03/07 11:08:08;;;;;;;0.20;0.20;;;;;;;4.11;52.44;100787.82;1779247;80;21462;-48
2021/03/07 11:11:09;;;;;;;0.20;0.20;;;;;;;4.10;52.36;100787.50;1778447;80;21478;-49
2021/03/07 11:14:10;;;;;;;0.35;0.35;;;;;;;4.10;51.95;100768.56;1782233;80;21150;-48
2021/03/07 11:17:12;;;;;;;0.20;0.20;;;;;;;4.02;51.88;100781.06;1782318;80;21150;-49
2021/03/07 11:20:15;;;;;;;0.03;0.03;;;;;;;3.93;52.24;100776.52;1782599;80;21395;-48
2021/03/07 11:23:16;;;;;;;1.55;0.57;;;;;;;3.86;52.17;100776.58;1782580;80;21138;-48
2021/03/07 11:26:17;;;;;;;1.50;0.72;;;;;;;3.77;52.62;100771.17;1782380;80;21155;-48
2021/03/07 11:29:17;;;;;;;0.42;0.42;;;;;;;3.69;52.78;100765.27;1782425;80;21130;-48
2021/03/07 11:32:17;;;;;;;0.10;0.10;;;;;;;3.60;53.11;100745.81;1782360;80;21155;-48
2021/03/07 11:35:18;;;;;;;1.12;0.72;;;;;;;3.51;53.27;100744.45;1782194;80;21119;-48
2021/03/07 11:38:18;;;;;;;0.47;0.47;;;;;;;3.45;53.72;100745.66;1782350;80;21193;-48
2021/03/07 11:41:19;;;;;;;0.45;0.45;;;;;;;3.50;53.85;100733.36;1782381;80;21028;-49
2021/03/07 11:44:19;;;;;;;1.00;1.00;;;;;;;3.52;53.78;100725.86;1782459;80;21179;-48
2021/03/07 11:47:19;;;;;;;1.65;1.20;;;;;;;3.56;53.82;100717.58;1782316;80;21131;-48
2021/03/07 11:50:20;;;;;;;0.33;0.33;;;;;;;3.57;53.56;100726.83;1782161;80;21130;-49
2021/03/07 11:53:20;;;;;;;0.20;0.20;;;;;;;3.52;53.60;100715.05;1782057;80;21174;-49
2021/03/07 11:56:21;;;;;;;0.10;0.10;;;;;;;3.50;53.38;100717.15;1782240;80;21138;-49
2021/03/07 11:59:21;;;;;;;0.20;0.20;;;;;;;3.50;53.81;100715.80;1782514;80;21193;-48
2021/03/07 12:02:22;;;;;;;0.30;0.30;;;;;;;3.53;53.19;100699.13;1782446;80;21146;-49
2021/03/07 12:05:23;;;;;;;0.50;0.50;;;;;;;3.49;53.10;100693.86;1782571;80;21156;-49
2021/03/07 12:08:23;;;;;;;0.20;0.20;;;;;;;3.43;53.03;100672.11;1782385;80;21147;-48
2021/03/07 12:11:24;;;;;;;1.27;1.00;;;;;;;3.36;53.22;100693.00;1781913;80;21182;-48
2021/03/07 12:14:26;;;;;;;0.23;0.23;;;;;;;3.32;53.39;100683.69;1779247;80;21558;-48
2021/03/07 12:17:26;;;;;;;0.00;0.00;;;;;;;3.30;53.71;100682.27;1779210;80;21340;-49
2021/03/07 12:20:29;;;;;;;0.45;0.45;;;;;;;3.27;53.73;100684.89;1779420;80;21194;-49
2021/03/07 12:23:30;;;;;;;0.13;0.13;;;;;;;3.28;54.09;100691.94;1778949;80;21143;-49
2021/03/07 12:26:31;;;;;;;0.20;0.20;;;;;;;3.28;53.86;100681.66;1778912;80;21183;-48
2021/03/07 12:29:31;;;;;;;2.08;0.40;;;;;;;3.25;53.96;100682.13;1778974;80;21589;-48
2021/03/07 12:32:32;;;;;;;0.30;0.30;;;;;;;3.17;54.13;100671.09;1779249;80;21151;-49
2021/03/07 12:35:33;;;;;;;0.37;0.37;;;;;;;3.12;54.12;100672.30;1779495;80;21122;-48
2021/03/07 12:38:34;;;;;;;0.20;0.20;;;;;;;3.06;54.49;100674.53;1779469;80;21795;-49
2021/03/07 12:41:34;;;;;;;0.28;0.23;;;;;;;2.97;54.60;100673.48;1779239;80;21150;-49
2021/03/07 12:44:29;;;;;;;0.10;0.10;;;;;;;2.92;54.78;100678.73;1779291;80;21238;-48
2021/03/07 12:47:29;;;;;;;0.10;0.10;;;;;;;2.91;54.97;100674.89;1779223;80;21150;-48
2021/03/07 12:50:32;;;;;;;0.57;0.50;;;;;;;2.86;55.31;100673.38;1778378;80;21151;-49
2021/03/07 12:53:32;;;;;;;0.15;0.15;;;;;;;2.82;55.07;100668.12;1779233;80;21138;-48
2021/03/07 12:56:34;;;;;;;0.20;0.20;;;;;;;2.74;55.20;100666.01;1778901;80;21533;-49
2021/03/07 12:59:34;;;;;;;0.45;0.42;;;;;;;2.69;55.56;100650.19;1779204;80;21143;-49
2021/03/07 13:02:35;;;;;;;0.30;0.30;;;;;;;2.65;55.47;100657.92;1779172;80;21103;-49
2021/03/07 13:05:35;;;;;;;0.33;0.33;;;;;;;2.61;55.68;100652.66;1779229;80;21112;-49
2021/03/07 13:08:37;;;;;;;0.20;0.20;;;;;;;2.58;55.59;100651.22;1779397;80;21162;-49
2021/03/07 13:11:38;;;;;;;0.85;0.85;;;;;;;2.53;56.13;100648.37;1778231;80;21154;-49
2021/03/07 13:14:39;;;;;;;2.92;0.33;;;;;;;2.52;56.14;100648.08;1782292;80;21178;-48
2021/03/07 13:17:41;;;;;;;1.17;0.30;;;;;;;2.52;56.46;100645.38;1782201;80;21597;-48
2021/03/07 13:20:41;;;;;;;0.17;0.17;;;;;;;2.50;56.22;100629.94;1782455;80;21408;-48
2021/03/07 13:23:42;;;;;;;0.40;0.40;;;;;;;2.47;56.45;100641.14;1782329;80;21147;-49
2021/03/07 13:26:42;;;;;;;0.10;0.10;;;;;;;2.46;56.76;100635.98;1783762;79;21127;-48
2021/03/07 13:29:42;;;;;;;0.85;0.53;;;;;;;2.45;56.89;100642.41;1768692;79;21146;-48
2021/03/07 13:32:43;;;;;;;0.30;0.30;;;;;;;2.41;56.96;100629.09;1767918;78;21170;-48
2021/03/07 13:35:43;;;;;;;0.10;0.10;;;;;;;2.38;57.29;100633.05;1785541;79;21600;-48
2021/03/07 13:38:45;;;;;;;0.13;0.13;;;;;;;2.36;57.47;100632.44;1771034;79;21130;-48
2021/03/07 13:41:45;;;;;;;0.00;0.00;;;;;;;2.35;57.53;100632.16;1768674;79;21104;-49
2021/03/07 13:44:46;;;;;;;0.00;0.00;;;;;;;2.32;57.63;100624.48;1765879;79;21127;-48
2021/03/07 13:47:46;;;;;;;0.90;0.90;;;;;;;2.31;57.73;100620.14;1764001;79;21125;-49
2021/03/07 13:50:48;;;;;;;0.35;0.35;;;;;;;2.29;57.84;100616.84;1780176;79;21201;-48
2021/03/07 13:53:50;;;;;;;0.65;0.60;;;;;;;2.28;57.96;100619.24;1779973;79;21167;-48
2021/03/07 13:56:51;;;;;;;0.17;0.17;;;;;;;2.26;58.13;100613.24;1787302;79;21174;-49
2021/03/07 13:59:52;;;;;;;0.37;0.37;;;;;;;2.23;58.35;100602.91;1795255;79;21149;-49
2021/03/07 14:02:55;;;;;;;0.20;0.20;;;;;;;2.21;58.48;100603.11;1777607;79;21098;-48
2021/03/07 14:05:56;;;;;;;0.10;0.10;;;;;;;2.19;58.62;100597.64;1773478;79;21152;-48
2021/03/07 14:08:56;;;;;;;0.65;0.65;;;;;;;2.17;59.01;100602.42;1798613;78;21139;-49
2021/03/07 14:11:56;;;;;;;0.35;0.35;;;;;;;2.13;59.24;100596.13;1803504;78;21140;-48
2021/03/07 14:14:57;;;;;;;1.65;0.47;;;;;;;2.10;59.26;100581.75;1747450;80;21115;-49